createdAt,value
2022-11-28T00:01:00.093Z,4.63
2022-11-28T00:03:26.442Z,5.10
2022-11-28T00:05:52.901Z,9.07
2022-11-28T00:08:19.205Z,6.22
2022-11-28T00:10:45.490Z,13.70
2022-11-28T00:13:11.818Z,5.25
2022-11-28T00:15:38.111Z,9.30
2022-11-28T00:18:04.483Z,10.25
2022-11-28T00:20:33.706Z,5.63
2022-11-28T00:22:59.913Z,3.85
2022-11-28T00:25:26.142Z,5.68
2022-11-28T00:27:52.374Z,5.18
2022-11-28T00:30:18.666Z,5.45
2022-11-28T00:32:44.952Z,6.38
2022-11-28T00:35:11.454Z,8.05
2022-11-28T00:37:37.730Z,4.50
2022-11-28T00:40:04.190Z,9.50
2022-11-28T00:42:30.467Z,4.85
2022-11-28T00:44:56.747Z,4.53
2022-11-28T00:47:23.025Z,5.70
2022-11-28T00:49:49.283Z,5.55
2022-11-28T00:52:15.544Z,4.57
2022-11-28T00:54:42.017Z,4.82
2022-11-28T00:57:08.509Z,7.47
2022-11-28T00:59:34.712Z,6.45
2022-11-28T01:02:01.055Z,5.88
2022-11-28T01:04:27.816Z,4.60
2022-11-28T01:06:55.622Z,8.43
2022-11-28T01:09:22.777Z,7.03
2022-11-28T01:11:50.182Z,7.47
2022-11-28T01:14:18.319Z,6.32
2022-11-28T01:16:44.621Z,7.82
2022-11-28T01:19:11.036Z,5.22
2022-11-28T01:21:37.517Z,4.72
2022-11-28T01:24:03.941Z,7.30
2022-11-28T01:26:30.662Z,8.57
2022-11-28T01:28:57.105Z,4.43
2022-11-28T01:31:24.992Z,8.85
2022-11-28T01:33:51.371Z,12.93
2022-11-28T01:36:18.433Z,7.10
2022-11-28T01:38:44.902Z,6.47
2022-11-28T01:41:12.101Z,4.95
2022-11-28T01:43:56.330Z,4.10
2022-11-28T01:46:22.633Z,7.72
2022-11-28T01:48:48.969Z,4.50
2022-11-28T01:51:15.457Z,4.10
2022-11-28T01:53:43.097Z,4.60
2022-11-28T01:56:12.928Z,4.15
2022-11-28T01:58:41.053Z,4.50
2022-11-28T02:01:07.586Z,10.70
2022-11-28T02:03:38.245Z,3.85
2022-11-28T02:06:04.663Z,4.07
2022-11-28T02:08:34.834Z,5.13
2022-11-28T02:11:12.417Z,3.30
2022-11-28T02:13:38.665Z,6.32
2022-11-28T02:16:43.417Z,7.35
2022-11-28T02:19:32.521Z,5.65
2022-11-28T02:22:01.283Z,6.03
2022-11-28T02:24:30.399Z,3.17
2022-11-28T02:27:02.366Z,5.22
2022-11-28T02:29:28.561Z,4.82
2022-11-28T02:32:13.097Z,9.93
2022-11-28T02:34:54.582Z,8.63
2022-11-28T02:37:47.081Z,2.92
2022-11-28T02:40:13.339Z,4.90
2022-11-28T02:42:45.521Z,10.55
2022-11-28T02:45:22.738Z,8.25
2022-11-28T02:47:51.630Z,6.00
2022-11-28T02:50:30.429Z,3.45
2022-11-28T02:53:01.861Z,2.70
2022-11-28T02:55:28.121Z,4.78
2022-11-28T02:57:55.079Z,4.00
2022-11-28T03:00:21.662Z,4.88
2022-11-28T03:02:51.914Z,1.08
2022-11-28T03:05:23.448Z,4.05
2022-11-28T03:08:18.826Z,4.60
2022-11-28T03:10:50.305Z,7.47
2022-11-28T03:13:27.233Z,3.75
2022-11-28T03:16:12.407Z,2.85
2022-11-28T03:18:40.097Z,4.25
2022-11-28T03:21:12.868Z,15.60
2022-11-28T03:23:43.637Z,5.07
2022-11-28T03:26:18.709Z,2.72
2022-11-28T03:28:47.827Z,2.97
2022-11-28T03:31:17.054Z,4.70
2022-11-28T03:33:55.604Z,10.50
2022-11-28T03:36:25.209Z,2.63
2022-11-28T03:38:54.228Z,3.08
2022-11-28T03:41:35.624Z,4.35
2022-11-28T03:44:02.272Z,3.55
2022-11-28T03:46:34.350Z,3.40
2022-11-28T03:49:01.652Z,4.25
2022-11-28T03:51:37.362Z,5.75
2022-11-28T03:54:08.221Z,9.48
2022-11-28T03:59:08.198Z,7.15
2022-11-28T04:01:39.355Z,3.78
2022-11-28T04:04:18.867Z,8.65
2022-11-28T04:07:03.770Z,4.82
2022-11-28T04:09:56.332Z,3.42
2022-11-28T04:12:34.621Z,3.78
2022-11-28T04:15:04.111Z,3.58
2022-11-28T04:17:35.865Z,3.58
2022-11-28T04:20:13.902Z,4.15
2022-11-28T04:22:48.889Z,7.35
2022-11-28T04:25:16.909Z,3.75
2022-11-28T04:28:03.405Z,5.60
2022-11-28T04:30:29.662Z,4.80
2022-11-28T04:33:07.705Z,4.97
2022-11-28T04:35:36.366Z,4.53
2022-11-28T04:38:04.969Z,6.38
2022-11-28T04:40:32.901Z,8.77
2022-11-28T04:43:02.279Z,5.07
2022-11-28T04:45:31.972Z,4.65
2022-11-28T04:47:58.532Z,7.38
2022-11-28T04:50:28.442Z,9.93
2022-11-28T04:52:56.772Z,5.03
2022-11-28T04:55:43.361Z,7.35
2022-11-28T04:58:12.798Z,3.97
2022-11-28T05:00:39.699Z,5.60
2022-11-28T05:03:06.494Z,8.75
2022-11-28T05:05:41.547Z,6.70
2022-11-28T05:08:07.771Z,4.60
2022-11-28T05:10:34.916Z,2.28
2022-11-28T05:13:01.223Z,5.72
2022-11-28T05:15:27.506Z,3.67
2022-11-28T05:17:53.725Z,3.80
2022-11-28T05:20:20.013Z,4.68
2022-11-28T05:22:46.250Z,3.35
2022-11-28T05:25:12.648Z,7.32
2022-11-28T05:27:38.982Z,3.15
2022-11-28T05:30:06.238Z,6.68
2022-11-28T05:32:32.886Z,5.68
2022-11-28T05:34:59.210Z,5.75
2022-11-28T05:37:25.581Z,6.03
2022-11-28T05:39:51.893Z,4.50
2022-11-28T05:42:18.123Z,5.05
2022-11-28T05:44:44.398Z,4.75
2022-11-28T05:47:10.693Z,8.38
2022-11-28T05:49:36.928Z,12.27
2022-11-28T05:52:03.308Z,4.28
2022-11-28T05:54:30.522Z,3.45
2022-11-28T05:56:56.741Z,9.40
2022-11-28T05:59:23.088Z,5.10
2022-11-28T06:01:49.457Z,6.00
2022-11-28T06:04:15.719Z,5.75
2022-11-28T06:06:41.937Z,8.85
2022-11-28T06:09:08.172Z,4.10
2022-11-28T06:11:34.515Z,5.72
2022-11-28T06:14:01.248Z,4.53
2022-11-28T06:16:28.285Z,7.10
2022-11-28T06:19:01.674Z,5.35
2022-11-28T06:21:28.834Z,3.72
2022-11-28T06:23:55.993Z,3.53
2022-11-28T06:26:23.285Z,6.75
2022-11-28T06:28:49.730Z,5.28
2022-11-28T06:31:17.833Z,4.28
2022-11-28T06:33:44.185Z,6.13
2022-11-28T06:36:11.429Z,7.60
2022-11-28T06:38:37.889Z,5.75
2022-11-28T06:41:05.849Z,4.38
2022-11-28T06:43:32.389Z,4.07
2022-11-28T06:45:58.716Z,4.18
2022-11-28T06:48:26.483Z,6.00
2022-11-28T06:50:53.063Z,5.93
2022-11-28T06:53:19.649Z,4.70
2022-11-28T06:55:46.320Z,8.48
2022-11-28T06:58:12.746Z,6.00
2022-11-28T07:00:39.027Z,5.90
2022-11-28T07:03:05.381Z,4.78
2022-11-28T07:05:31.650Z,10.50
2022-11-28T07:07:58.184Z,4.35
2022-11-28T07:10:24.800Z,4.97
2022-11-28T07:12:54.625Z,7.15
2022-11-28T07:15:22.469Z,4.28
2022-11-28T07:17:48.862Z,7.53
2022-11-28T07:20:15.127Z,7.47
2022-11-28T07:22:41.430Z,7.80
2022-11-28T07:25:07.855Z,5.28
2022-11-28T07:27:34.100Z,6.72
2022-11-28T07:30:00.371Z,7.32
2022-11-28T07:32:26.691Z,7.88
2022-11-28T07:34:52.944Z,8.63
2022-11-28T07:37:19.305Z,11.18
2022-11-28T07:39:45.725Z,13.80
2022-11-28T07:42:12.205Z,7.63
2022-11-28T07:44:38.506Z,12.05
2022-11-28T07:47:04.945Z,7.50
2022-11-28T07:49:31.338Z,10.77
2022-11-28T07:51:58.253Z,9.18
2022-11-28T07:54:24.532Z,11.52
2022-11-28T07:57:12.747Z,7.30
2022-11-28T07:59:37.033Z,7.72
2022-11-28T08:02:03.536Z,5.80
2022-11-28T08:04:30.015Z,8.18
2022-11-28T08:06:56.954Z,10.80
2022-11-28T08:09:23.321Z,11.63
2022-11-28T08:11:52.383Z,16.45
2022-11-28T08:14:18.622Z,7.95
2022-11-28T08:16:45.226Z,12.15
2022-11-28T08:19:11.978Z,13.32
2022-11-28T08:21:38.785Z,9.07
2022-11-28T08:24:05.915Z,7.93
2022-11-28T08:26:32.597Z,9.20
2022-11-28T08:28:59.536Z,8.95
2022-11-28T08:31:27.070Z,8.00
2022-11-28T08:33:54.463Z,8.95
2022-11-28T08:36:21.117Z,9.27
2022-11-28T08:39:03.306Z,7.13
2022-11-28T08:41:34.129Z,8.23
2022-11-28T08:44:00.427Z,10.15
2022-11-28T08:46:26.702Z,12.10
2022-11-28T08:48:52.981Z,7.97
2022-11-28T08:51:20.989Z,7.95
2022-11-28T08:53:49.366Z,6.68
2022-11-28T08:56:15.835Z,9.57
2022-11-28T08:58:42.170Z,6.68
2022-11-28T09:01:21.776Z,7.93
2022-11-28T09:03:48.371Z,7.57
2022-11-28T09:06:15.800Z,10.30
2022-11-28T09:08:42.569Z,5.10
2022-11-28T09:11:09.708Z,7.32
2022-11-28T09:13:36.464Z,6.82
2022-11-28T09:16:03.314Z,7.35
2022-11-28T09:18:29.651Z,8.88
2022-11-28T09:20:59.690Z,7.13
2022-11-28T09:23:25.979Z,9.80
2022-11-28T09:25:52.307Z,12.02
2022-11-28T09:28:18.663Z,8.75
2022-11-28T09:30:44.992Z,10.75
2022-11-28T09:33:13.231Z,14.73
2022-11-28T09:35:39.945Z,11.48
2022-11-28T09:38:06.686Z,10.98
2022-11-28T09:40:40.410Z,16.98
2022-11-28T09:43:13.286Z,18.35
2022-11-28T09:45:39.980Z,16.23
2022-11-28T09:48:29.302Z,16.73
2022-11-28T09:50:57.964Z,24.08
2022-11-28T09:53:30.511Z,13.43
2022-11-28T09:56:04.281Z,19.35
2022-11-28T09:58:43.137Z,18.10
2022-11-28T10:01:29.482Z,23.20
2022-11-28T10:04:04.216Z,26.85
2022-11-28T10:06:53.014Z,18.38
2022-11-28T10:09:25.322Z,22.25
2022-11-28T10:11:57.799Z,25.17
2022-11-28T10:14:39.883Z,28.40
2022-11-28T10:17:20.999Z,27.10
2022-11-28T10:20:00.762Z,27.08
2022-11-28T10:22:33.020Z,31.73
2022-11-28T10:25:03.522Z,35.58
2022-11-28T10:27:33.701Z,31.52
2022-11-28T10:30:02.739Z,28.15
2022-11-28T10:32:34.509Z,32.78
2022-11-28T10:35:03.358Z,40.15
2022-11-28T10:37:31.394Z,40.70
2022-11-28T10:40:30.303Z,29.38
2022-11-28T10:42:59.930Z,52.85
2022-11-28T10:45:38.472Z,39.60
2022-11-28T10:48:38.623Z,31.88
2022-11-28T10:51:05.913Z,33.13
2022-11-28T10:53:35.175Z,41.78
2022-11-28T10:56:09.907Z,34.33
2022-11-28T10:58:37.738Z,42.92
2022-11-28T11:01:04.313Z,41.95
2022-11-28T11:03:32.616Z,43.83
2022-11-28T11:05:59.959Z,33.92
2022-11-28T11:08:28.946Z,40.78
2022-11-28T11:10:58.276Z,47.25
2022-11-28T11:13:25.786Z,42.00
2022-11-28T11:16:03.643Z,41.13
2022-11-28T11:18:30.032Z,46.20
2022-11-28T11:21:14.103Z,46.40
2022-11-28T11:23:40.448Z,30.60
2022-11-28T11:26:10.365Z,36.78
2022-11-28T11:28:36.701Z,42.37
2022-11-28T11:31:05.034Z,44.63
2022-11-28T11:33:35.785Z,41.83
2022-11-28T11:36:06.269Z,40.00
2022-11-28T11:38:38.060Z,37.35
2022-11-28T11:41:23.140Z,37.90
2022-11-28T11:43:49.398Z,52.38
2022-11-28T11:46:16.296Z,40.33
2022-11-28T11:48:42.545Z,24.45
2022-11-28T11:51:24.013Z,49.40
2022-11-28T11:54:25.888Z,37.30
2022-11-28T11:57:05.768Z,39.38
2022-11-28T11:59:53.728Z,41.35
2022-11-28T12:02:23.880Z,26.80
2022-11-28T12:04:55.677Z,31.90
2022-11-28T12:07:26.158Z,31.70
2022-11-28T12:09:54.664Z,28.90
2022-11-28T12:12:29.052Z,25.55
2022-11-28T12:14:55.686Z,32.85
2022-11-28T12:17:48.891Z,31.67
2022-11-28T12:20:24.738Z,28.85
2022-11-28T12:23:03.174Z,29.80
2022-11-28T12:25:36.370Z,26.70
2022-11-28T12:28:11.289Z,39.90
2022-11-28T12:30:49.872Z,28.60
2022-11-28T12:33:25.153Z,26.58
2022-11-28T12:36:05.549Z,33.95
2022-11-28T12:39:07.183Z,29.05
2022-11-28T12:41:52.276Z,28.25
2022-11-28T12:44:37.083Z,44.80
2022-11-28T12:47:10.862Z,36.50
2022-11-28T12:49:55.767Z,24.83
2022-11-28T12:52:33.676Z,31.23
2022-11-28T12:55:25.823Z,34.13
2022-11-28T12:58:00.463Z,29.05
2022-11-28T13:00:29.188Z,31.20
2022-11-28T13:03:01.399Z,30.83
2022-11-28T13:05:34.450Z,33.40
2022-11-28T13:08:00.931Z,32.50
2022-11-28T13:10:31.407Z,33.67
2022-11-28T13:13:04.347Z,35.10
2022-11-28T13:15:41.489Z,32.35
2022-11-28T13:18:20.079Z,31.05
2022-11-28T13:20:50.269Z,38.60
2022-11-28T13:23:26.747Z,30.20
2022-11-28T13:25:55.422Z,30.83
2022-11-28T13:28:37.560Z,30.00
2022-11-28T13:31:21.256Z,29.40
2022-11-28T13:33:52.029Z,33.60
2022-11-28T13:39:24.014Z,35.40
2022-11-28T13:44:53.128Z,33.10
2022-11-28T13:47:22.483Z,30.75
2022-11-28T13:49:49.228Z,35.17
2022-11-28T13:52:18.460Z,40.88
2022-11-28T13:54:50.784Z,33.28
2022-11-28T13:57:39.627Z,42.92
2022-11-28T14:00:19.417Z,38.35
2022-11-28T14:02:47.452Z,36.42
2022-11-28T14:05:26.409Z,45.42
2022-11-28T14:07:53.688Z,43.50
2022-11-28T14:10:30.777Z,40.75
2022-11-28T14:13:06.194Z,40.17
2022-11-28T14:15:54.302Z,39.42
2022-11-28T14:18:56.309Z,36.13
2022-11-28T14:21:38.105Z,35.17
2022-11-28T14:24:04.393Z,44.17
2022-11-28T14:26:38.057Z,44.30
2022-11-28T14:29:06.109Z,33.92
2022-11-28T14:31:37.628Z,38.97
2022-11-28T14:34:05.669Z,35.83
2022-11-28T14:36:36.148Z,46.25
2022-11-28T14:39:08.831Z,42.78
2022-11-28T14:41:53.733Z,33.90
2022-11-28T14:44:38.726Z,45.08
2022-11-28T14:47:06.474Z,37.03
2022-11-28T14:49:32.703Z,33.63
2022-11-28T14:52:30.752Z,40.45
2022-11-28T14:54:53.261Z,42.47
2022-11-28T14:57:24.338Z,45.35
2022-11-28T14:59:51.045Z,40.85
2022-11-28T15:02:26.736Z,44.20
2022-11-28T15:05:04.896Z,35.67
2022-11-28T15:07:50.156Z,37.20
2022-11-28T15:10:23.529Z,36.92
2022-11-28T15:13:07.939Z,36.33
2022-11-28T15:15:34.304Z,33.03
2022-11-28T15:18:03.156Z,34.15
2022-11-28T15:20:31.832Z,30.13
2022-11-28T15:22:58.105Z,29.42
2022-11-28T15:25:25.613Z,41.65
2022-11-28T15:27:52.153Z,37.92
2022-11-28T15:30:26.391Z,38.40
2022-11-28T15:32:58.215Z,33.08
2022-11-28T15:35:24.538Z,32.65
2022-11-28T15:37:53.046Z,42.88
2022-11-28T15:40:28.806Z,38.58
2022-11-28T15:42:55.337Z,44.10
2022-11-28T15:45:26.619Z,50.72
2022-11-28T15:47:53.643Z,35.90
2022-11-28T15:50:25.027Z,37.63
2022-11-28T15:52:54.537Z,43.60
2022-11-28T15:55:20.951Z,37.53
2022-11-28T15:57:47.238Z,38.08
2022-11-28T16:00:14.420Z,35.80
2022-11-28T16:02:41.265Z,41.85
2022-11-28T16:05:09.137Z,37.15
2022-11-28T16:07:40.718Z,42.53
2022-11-28T16:10:16.995Z,39.22
2022-11-28T16:12:44.165Z,32.45
2022-11-28T16:15:18.141Z,31.05
2022-11-28T16:17:44.553Z,32.90
2022-11-28T16:20:24.686Z,33.10
2022-11-28T16:22:56.031Z,30.83
2022-11-28T16:25:23.856Z,34.88
2022-11-28T16:27:53.129Z,34.50
2022-11-28T16:30:25.896Z,37.28
2022-11-28T16:32:53.325Z,51.85
2022-11-28T16:35:30.203Z,41.10
2022-11-28T16:38:06.473Z,44.78
2022-11-28T16:40:32.825Z,44.22
2022-11-28T16:42:59.491Z,36.13
2022-11-28T16:45:30.630Z,36.97
2022-11-28T16:48:00.246Z,44.00
2022-11-28T16:50:26.735Z,35.55
2022-11-28T16:52:57.739Z,47.00
2022-11-28T16:55:26.808Z,37.00
2022-11-28T16:58:07.278Z,43.78
2022-11-28T17:00:33.950Z,42.45
2022-11-28T17:03:00.363Z,48.70
2022-11-28T17:05:26.596Z,49.85
2022-11-28T17:07:53.123Z,43.05
2022-11-28T17:10:19.456Z,49.08
2022-11-28T17:12:45.789Z,54.97
2022-11-28T17:15:15.004Z,49.97
2022-11-28T17:17:41.277Z,56.60
2022-11-28T17:20:07.751Z,50.22
2022-11-28T17:22:40.718Z,44.30
2022-11-28T17:25:10.417Z,47.38
2022-11-28T17:27:36.685Z,48.55
2022-11-28T17:30:02.991Z,34.63
2022-11-28T17:32:29.230Z,37.20
2022-11-28T17:34:55.488Z,38.20
2022-11-28T17:37:21.774Z,44.70
2022-11-28T17:40:06.993Z,40.17
2022-11-28T17:42:33.330Z,43.78
2022-11-28T17:44:59.636Z,48.88
2022-11-28T17:47:25.937Z,48.10
2022-11-28T17:49:52.377Z,51.15
2022-11-28T17:52:19.944Z,43.38
2022-11-28T17:54:46.280Z,58.25
2022-11-28T17:57:12.817Z,48.30
2022-11-28T17:59:39.112Z,49.88
2022-11-28T18:02:05.436Z,44.75
2022-11-28T18:04:34.021Z,38.05
2022-11-28T18:07:01.612Z,38.20
2022-11-28T18:09:29.163Z,51.17
2022-11-28T18:11:55.387Z,36.60
2022-11-28T18:14:21.649Z,49.38
2022-11-28T18:16:48.097Z,35.92
2022-11-28T18:19:14.390Z,38.38
2022-11-28T18:21:40.675Z,43.15
2022-11-28T18:24:07.179Z,36.92
2022-11-28T18:26:33.487Z,37.72
2022-11-28T18:29:00.178Z,42.85
2022-11-28T18:31:27.645Z,33.75
2022-11-28T18:34:00.306Z,38.70
2022-11-28T18:36:29.176Z,40.63
2022-11-28T18:38:55.972Z,41.78
2022-11-28T18:41:22.203Z,53.78
2022-11-28T18:43:48.511Z,41.63
2022-11-28T18:46:16.325Z,35.88
2022-11-28T18:48:43.669Z,35.45
2022-11-28T18:51:11.128Z,37.30
2022-11-28T18:53:37.509Z,37.53
2022-11-28T18:56:03.887Z,30.02
2022-11-28T18:58:33.044Z,34.33
2022-11-28T19:00:59.277Z,35.72
2022-11-28T19:03:25.490Z,30.88
2022-11-28T19:05:51.722Z,45.70
2022-11-28T19:08:17.920Z,35.90
2022-11-28T19:10:44.597Z,50.08
2022-11-28T19:13:10.880Z,48.72
2022-11-28T19:15:40.549Z,46.25
2022-11-28T19:18:06.818Z,45.65
2022-11-28T19:20:33.080Z,36.00
2022-11-28T19:22:59.339Z,43.13
2022-11-28T19:25:26.075Z,46.83
2022-11-28T19:27:52.341Z,38.10
2022-11-28T19:30:18.622Z,49.95
2022-11-28T19:32:44.838Z,58.53
2022-11-28T19:35:11.085Z,42.88
2022-11-28T19:37:37.352Z,44.30
2022-11-28T19:40:03.722Z,45.67
2022-11-28T19:42:29.948Z,42.00
2022-11-28T19:44:56.201Z,47.53
2022-11-28T19:47:22.845Z,39.03
2022-11-28T19:49:49.167Z,48.90
2022-11-28T19:52:15.425Z,51.60
2022-11-28T19:54:42.348Z,60.63
2022-11-28T19:57:11.191Z,39.72
2022-11-28T19:59:37.479Z,43.63
2022-11-28T20:02:05.856Z,45.17
2022-11-28T20:04:32.157Z,44.13
2022-11-28T20:06:58.414Z,54.50
2022-11-28T20:09:24.685Z,37.60
2022-11-28T20:11:50.984Z,57.03
2022-11-28T20:14:18.316Z,56.22
2022-11-28T20:16:45.032Z,57.08
2022-11-28T20:19:11.907Z,49.22
2022-11-28T20:21:38.222Z,43.35
2022-11-28T20:24:07.224Z,57.50
2022-11-28T20:26:35.208Z,46.22
2022-11-28T20:29:01.534Z,50.95
2022-11-28T20:31:30.579Z,50.92
2022-11-28T20:33:57.128Z,49.63
2022-11-28T20:36:24.102Z,45.80
2022-11-28T20:38:50.888Z,49.45
2022-11-28T20:41:18.068Z,54.50
2022-11-28T20:43:44.538Z,53.67
2022-11-28T20:46:12.737Z,58.05
2022-11-28T20:48:39.454Z,42.88
2022-11-28T20:51:09.286Z,42.58
2022-11-28T20:53:37.421Z,32.70
2022-11-28T20:56:04.886Z,45.42
2022-11-28T20:58:31.220Z,44.00
2022-11-28T21:00:57.669Z,47.88
2022-11-28T21:03:23.990Z,45.88
2022-11-28T21:05:50.358Z,55.33
2022-11-28T21:08:16.794Z,40.92
2022-11-28T21:10:43.318Z,51.83
2022-11-28T21:13:09.703Z,49.95
2022-11-28T21:15:45.346Z,44.15
2022-11-28T21:18:12.673Z,69.60
2022-11-28T21:20:40.322Z,60.58
2022-11-28T21:23:06.565Z,58.45
2022-11-28T21:25:34.897Z,64.10
2022-11-28T21:28:01.097Z,64.40
2022-11-28T21:30:27.350Z,60.05
2022-11-28T21:32:53.560Z,82.75
2022-11-28T21:35:19.909Z,58.95
2022-11-28T21:37:46.175Z,90.50
2022-11-28T21:40:12.792Z,61.08
2022-11-28T21:42:39.075Z,64.93
2022-11-28T21:45:05.597Z,61.38
2022-11-28T21:47:31.872Z,55.53
2022-11-28T21:49:58.144Z,56.33
2022-11-28T21:52:24.627Z,54.65
2022-11-28T21:54:51.766Z,59.88
2022-11-28T21:57:18.298Z,77.38
2022-11-28T21:59:44.798Z,58.58
2022-11-28T22:02:13.980Z,53.33
2022-11-28T22:04:40.474Z,59.95
2022-11-28T22:07:06.993Z,53.20
2022-11-28T22:09:33.263Z,68.65
2022-11-28T22:11:59.586Z,59.25
2022-11-28T22:14:25.949Z,70.70
2022-11-28T22:16:52.269Z,54.95
2022-11-28T22:19:18.548Z,62.28
2022-11-28T22:21:53.784Z,59.05
2022-11-28T22:24:21.957Z,73.47
2022-11-28T22:26:48.184Z,65.15
2022-11-28T22:29:14.457Z,69.60
2022-11-28T22:31:40.792Z,61.00
2022-11-28T22:34:08.215Z,66.18
2022-11-28T22:36:34.484Z,78.70
2022-11-28T22:39:02.393Z,82.68
2022-11-28T22:41:29.721Z,60.38
2022-11-28T22:43:57.531Z,94.35
2022-11-28T22:46:23.832Z,71.80
2022-11-28T22:48:51.692Z,80.07
2022-11-28T22:51:20.465Z,74.15
2022-11-28T22:53:46.722Z,62.85
2022-11-28T22:56:14.431Z,76.70
2022-11-28T22:58:42.863Z,68.82
2022-11-28T23:01:10.312Z,71.75
2022-11-28T23:03:36.573Z,63.80
2022-11-28T23:06:06.564Z,60.70
2022-11-28T23:08:33.175Z,72.07
2022-11-28T23:10:59.435Z,59.05
2022-11-28T23:13:26.260Z,62.95
2022-11-28T23:15:53.038Z,63.97
2022-11-28T23:18:19.461Z,66.00
2022-11-28T23:20:45.756Z,74.55
2022-11-28T23:23:11.977Z,62.05
2022-11-28T23:25:38.194Z,51.88
2022-11-28T23:28:04.455Z,50.72
2022-11-28T23:30:30.741Z,68.43
2022-11-28T23:32:56.995Z,58.10
2022-11-28T23:35:23.201Z,60.00
2022-11-28T23:37:49.405Z,75.05
2022-11-28T23:40:15.701Z,70.40
2022-11-28T23:42:41.992Z,73.90
2022-11-28T23:45:08.757Z,61.75
2022-11-28T23:47:35.028Z,72.00
2022-11-28T23:50:01.891Z,75.70
2022-11-28T23:52:28.176Z,90.80
2022-11-28T23:54:54.497Z,91.95
2022-11-28T23:57:20.713Z,97.68
2022-11-28T23:59:46.986Z,74.53
